This is the latest recevied weather packets stored in our database for station/object AE5HO. If no packets are shown the sender has not sent any weather packets the latest 10 day(s).
| Time | Temp. | Humidity | Pressure | Rain* | Wind** | Luminosity | Snow |
|---|---|---|---|---|---|---|---|
| 1777572044 | 16.11° C | 89% | 1014.4 hPa | 0 mm | - | 32 W/m² | - |
| 1777571744 | 16.11° C | 90% | 1015.1 hPa | 0 mm | - | 20 W/m² | - |
| 1777571442 | 16.11° C | 91% | 1014.9 hPa | 0 mm | - | 16 W/m² | - |
| 1777571138 | 16.11° C | 91% | 1014.8 hPa | 0 mm | - | 17 W/m² | - |
| 1777570834 | 16.67° C | 92% | 1015.3 hPa | 0 mm | - | 16 W/m² | - |
| 1777570530 | 16.67° C | 92% | 1014.5 hPa | 0 mm | - | 26 W/m² | - |
| 1777570227 | 16.67° C | 92% | 1014.4 hPa | 0 mm | - | 31 W/m² | - |
| 1777569921 | 16.11° C | 92% | 1014.3 hPa | 0 mm | - | 40 W/m² | - |
| 1777569618 | 16.11° C | 92% | 1014 hPa | 0 mm | - | 39 W/m² | - |
| 1777569314 | 16.11° C | 92% | 1014.4 hPa | 0 mm | - | 31 W/m² | - |
| 1777569011 | 16.11° C | 92% | 1014.8 hPa | 0 mm | - | 27 W/m² | - |
| 1777568707 | 16.11° C | 92% | 1014.6 hPa | 0.51 mm | - | 27 W/m² | - |
| 1777568405 | 16.11° C | 92% | 1014.7 hPa | 0.51 mm | - | 17 W/m² | - |
| 1777568102 | 16.11° C | 92% | 1014.5 hPa | 0.51 mm | - | 26 W/m² | - |
| 1777567798 | 16.67° C | 92% | 1014.7 hPa | 0.51 mm | - | 29 W/m² | - |
| 1777567495 | 16.67° C | 92% | 1015.4 hPa | 0.51 mm | - | 21 W/m² | - |
| 1777567192 | 16.67° C | 91% | 1015.8 hPa | 1.27 mm | - | 15 W/m² | - |
| 1777566890 | 16.67° C | 91% | 1016.2 hPa | 1.27 mm | - | 12 W/m² | - |
| 1777566588 | 16.67° C | 91% | 1016.1 hPa | 0.51 mm | - | 12 W/m² | - |
| 1777566285 | 16.67° C | 91% | 1016.2 hPa | 0 mm | - | 7 W/m² | - |
| 1777565982 | 16.67° C | 90% | 1016.2 hPa | 0 mm | - | 7 W/m² | - |
| 1777565677 | 16.67° C | 90% | 1016.5 hPa | 0.51 mm | - | 4 W/m² | - |
| 1777565374 | 16.67° C | 89% | 1016.5 hPa | 0.51 mm | - | 5 W/m² | - |
| 1777565070 | 16.67° C | 89% | 1016.3 hPa | 1.27 mm | - | 2 W/m² | - |
| 1777564766 | 16.67° C | 88% | 1016.1 hPa | 0.51 mm | - | 5 W/m² | - |
* Rain latest hour (hover to see other rain measurements)
** Current wind speed in m/s (hover to see current wind gust speed)